Time;durP1;ratioP1;P1;durP2;ratioP2;P2;SDS_P1;SDS_P2;PMS_P1;PMS_P2;Temp;Humidity;BMP_temperature;BMP_pressure;BME280_temperature;BME280_humidity;BME280_pressure;Samples;Min_cycle;Max_cycle;Signal;HPM_P1;HPM_P2
2023/06/18 00:00:39;;;;;;;8.98;4.28;;;15.80;95.20;;;;;;4993864;28;20026;-67
2023/06/18 00:03:05;;;;;;;8.68;4.40;;;15.80;95.20;;;;;;5004650;28;20094;-67
2023/06/18 00:05:31;;;;;;;7.03;4.88;;;15.70;95.60;;;;;;5004414;28;20054;-67
2023/06/18 00:07:57;;;;;;;11.07;5.20;;;15.80;96.10;;;;;;4981464;28;20049;-67
2023/06/18 00:10:22;;;;;;;5.95;4.35;;;15.70;96.30;;;;;;5001268;28;20014;-68
2023/06/18 00:12:48;;;;;;;8.70;4.57;;;15.60;96.60;;;;;;4997665;28;20066;-68
2023/06/18 00:15:14;;;;;;;10.95;4.95;;;15.60;96.90;;;;;;4999543;28;20388;-67
2023/06/18 00:17:40;;;;;;;7.70;4.65;;;15.60;97.20;;;;;;5000079;28;20018;-67
2023/06/18 00:20:06;;;;;;;13.77;5.00;;;15.50;97.60;;;;;;5005814;28;20534;-67
2023/06/18 00:22:38;;;;;;;8.48;5.50;;;15.50;97.90;;;;;;5005015;28;20030;-66
2023/06/18 00:25:05;;;;;;;10.27;4.80;;;15.40;98.30;;;;;;4999314;28;20046;-67
2023/06/18 00:27:31;;;;;;;8.35;4.72;;;15.30;98.20;;;;;;4998866;28;20475;-66
2023/06/18 00:29:57;;;;;;;9.70;4.63;;;15.30;98.20;;;;;;5000244;28;20081;-67
2023/06/18 00:32:22;;;;;;;8.05;4.40;;;15.20;98.20;;;;;;4998204;28;20026;-67
2023/06/18 00:34:53;;;;;;;6.32;4.10;;;15.20;98.10;;;;;;5001556;28;20030;-67
2023/06/18 00:37:20;;;;;;;8.95;4.60;;;15.20;97.90;;;;;;5003737;28;20428;-67
2023/06/18 00:39:46;;;;;;;9.60;5.10;;;15.20;97.90;;;;;;4997815;28;20070;-67
2023/06/18 00:42:12;;;;;;;9.88;4.97;;;15.20;97.80;;;;;;5005217;28;20049;-67
2023/06/18 00:44:40;;;;;;;7.00;4.10;;;15.20;97.80;;;;;;5013958;28;20513;-67
2023/06/18 00:47:06;;;;;;;8.70;4.35;;;15.20;97.90;;;;;;5010925;28;20109;-67
2023/06/18 00:49:33;;;;;;;9.63;4.30;;;15.20;98.00;;;;;;4990251;28;20036;-67
2023/06/18 00:51:59;;;;;;;9.20;4.38;;;15.20;97.70;;;;;;5012228;28;20427;-68
2023/06/18 00:54:31;;;;;;;7.22;4.20;;;15.20;97.70;;;;;;5010579;28;20248;-67
2023/06/18 00:56:57;;;;;;;7.07;4.35;;;15.20;97.80;;;;;;5002130;28;20026;-67
2023/06/18 00:59:22;;;;;;;12.00;4.90;;;15.20;98.00;;;;;;4998070;28;20103;-67
2023/06/18 01:01:53;;;;;;;11.77;4.85;;;15.20;98.10;;;;;;5014095;28;20022;-67
2023/06/18 01:04:21;;;;;;;8.32;4.50;;;15.10;98.30;;;;;;5009442;28;20660;-67
2023/06/18 01:06:51;;;;;;;9.38;5.10;;;15.00;98.90;;;;;;5005785;28;20031;-67
2023/06/18 01:09:22;;;;;;;8.93;4.78;;;15.00;99.10;;;;;;4988054;28;20056;-67
2023/06/18 01:11:52;;;;;;;7.55;4.45;;;14.90;99.30;;;;;;4993391;28;20030;-68
2023/06/18 01:14:31;;;;;;;8.55;4.78;;;14.80;99.70;;;;;;4997477;28;20023;-67
2023/06/18 01:16:59;;;;;;;8.00;5.03;;;14.70;99.90;;;;;;5005952;28;20023;-67
2023/06/18 01:19:49;;;;;;;10.90;4.75;;;14.70;99.90;;;;;;4991462;28;20488;-67
2023/06/18 01:22:57;;;;;;;7.10;4.50;;;14.60;99.90;;;;;;4997733;28;20033;-66
2023/06/18 01:25:25;;;;;;;10.65;4.97;;;14.60;99.90;;;;;;5004203;28;20041;-68
2023/06/18 01:27:53;;;;;;;10.80;5.13;;;14.60;99.90;;;;;;4991990;28;20041;-67
2023/06/18 01:30:20;;;;;;;9.68;5.30;;;14.60;99.90;;;;;;4993985;28;20033;-67
2023/06/18 01:32:46;;;;;;;6.78;4.35;;;14.60;99.90;;;;;;5007345;28;20158;-67
2023/06/18 01:35:15;;;;;;;9.52;4.32;;;14.60;99.90;;;;;;5006290;28;20029;-68
2023/06/18 01:37:45;;;;;;;9.77;4.38;;;14.70;99.40;;;;;;4996173;28;20025;-68
2023/06/18 01:40:48;;;;;;;7.35;4.43;;;14.80;98.50;;;;;;4999618;28;20113;-67
2023/06/18 01:43:42;;;;;;;8.85;4.90;;;15.00;97.90;;;;;;5010053;28;20032;-67
2023/06/18 01:46:13;;;;;;;7.60;4.45;;;15.20;97.80;;;;;;5011935;28;20037;-68
2023/06/18 01:48:51;;;;;;;8.85;4.53;;;15.20;97.80;;;;;;4995168;28;20033;-67
2023/06/18 01:51:19;;;;;;;6.47;4.85;;;15.20;97.60;;;;;;5007676;28;20030;-67
2023/06/18 01:53:47;;;;;;;14.63;5.03;;;15.20;97.80;;;;;;5012755;28;20110;-67
2023/06/18 01:56:13;;;;;;;7.53;4.57;;;15.20;98.00;;;;;;5019153;28;20064;-66
2023/06/18 01:58:42;;;;;;;9.75;5.20;;;15.20;98.00;;;;;;5021964;28;20036;-67
2023/06/18 02:01:09;;;;;;;10.20;4.45;;;15.10;98.10;;;;;;5005942;28;20026;-67
2023/06/18 02:03:35;;;;;;;10.05;4.38;;;15.10;98.10;;;;;;5003910;28;20025;-68
2023/06/18 02:06:01;;;;;;;7.65;4.93;;;15.10;98.10;;;;;;5007191;28;20544;-66
2023/06/18 02:08:27;;;;;;;9.00;4.53;;;15.10;98.10;;;;;;4986280;28;20038;-68
2023/06/18 02:10:52;;;;;;;9.65;4.47;;;15.10;98.10;;;;;;5005793;28;20068;-67
2023/06/18 02:13:18;;;;;;;7.57;4.90;;;15.10;98.20;;;;;;4999144;28;20045;-67
2023/06/18 02:15:44;;;;;;;8.43;4.50;;;15.00;98.40;;;;;;5006037;28;20082;-67
2023/06/18 02:18:11;;;;;;;8.10;4.35;;;15.00;98.50;;;;;;5005885;28;20026;-67
2023/06/18 02:20:41;;;;;;;7.80;4.63;;;15.00;98.70;;;;;;5008398;28;20029;-67
2023/06/18 02:23:07;;;;;;;9.60;4.90;;;14.90;99.00;;;;;;5006840;28;20112;-67
2023/06/18 02:25:33;;;;;;;10.52;5.10;;;14.80;99.20;;;;;;5010161;28;20025;-67
2023/06/18 02:28:00;;;;;;;10.05;5.07;;;14.80;99.50;;;;;;5012354;28;20041;-68
2023/06/18 02:30:28;;;;;;;7.63;4.50;;;14.70;99.50;;;;;;5006070;28;20479;-67
2023/06/18 02:32:55;;;;;;;8.00;4.38;;;14.70;99.70;;;;;;5010175;28;20174;-68
2023/06/18 02:35:20;;;;;;;7.75;4.80;;;14.60;99.90;;;;;;5016027;28;20037;-67
2023/06/18 02:37:46;;;;;;;8.45;4.78;;;14.50;99.90;;;;;;5006233;28;20022;-67
2023/06/18 02:40:14;;;;;;;8.73;4.85;;;14.50;99.90;;;;;;5012904;28;20083;-66
2023/06/18 02:42:46;;;;;;;10.30;5.00;;;14.50;99.90;;;;;;5013463;28;20476;-68
2023/06/18 02:45:22;;;;;;;7.15;4.65;;;14.50;99.90;;;;;;5011423;28;20068;-67
2023/06/18 02:47:48;;;;;;;9.35;4.97;;;14.40;99.90;;;;;;5009262;28;21213;-68
2023/06/18 02:50:15;;;;;;;8.00;4.60;;;14.40;99.90;;;;;;4997920;28;20030;-67
2023/06/18 02:52:42;;;;;;;9.18;4.55;;;14.40;99.90;;;;;;5000910;28;20026;-67
2023/06/18 02:55:08;;;;;;;12.65;4.68;;;14.30;99.90;;;;;;5012515;28;20029;-67
2023/06/18 02:57:35;;;;;;;6.85;4.70;;;14.30;99.90;;;;;;5012026;28;20487;-67
2023/06/18 03:00:09;;;;;;;8.52;5.00;;;14.30;99.90;;;;;;5009679;28;20033;-67
2023/06/18 03:02:38;;;;;;;8.88;4.78;;;14.30;99.90;;;;;;5000923;28;20543;-67
2023/06/18 03:05:04;;;;;;;9.35;4.45;;;14.30;99.90;;;;;;5008538;28;20087;-67
2023/06/18 03:07:30;;;;;;;9.75;5.38;;;14.30;99.90;;;;;;4992883;28;20492;-67
2023/06/18 03:09:56;;;;;;;7.07;4.68;;;14.30;99.90;;;;;;4977043;28;20054;-67
2023/06/18 03:12:21;;;;;;;9.02;5.20;;;14.30;99.90;;;;;;4994663;28;20037;-67
2023/06/18 03:14:47;;;;;;;7.00;4.43;;;14.20;99.90;;;;;;4994381;28;21003;-67
2023/06/18 03:17:13;;;;;;;9.77;5.13;;;14.20;99.90;;;;;;4989607;28;20534;-66
2023/06/18 03:19:38;;;;;;;8.52;5.13;;;14.20;99.90;;;;;;4989388;28;20049;-67
2023/06/18 03:22:05;;;;;;;8.18;5.00;;;14.20;99.90;;;;;;4989062;28;20030;-68
2023/06/18 03:24:32;;;;;;;11.10;5.20;;;14.20;99.90;;;;;;4989560;28;20370;-67
2023/06/18 03:27:00;;;;;;;9.15;4.72;;;14.20;99.90;;;;;;4990141;28;20092;-67
2023/06/18 03:29:28;;;;;;;7.68;4.93;;;14.10;99.90;;;;;;4992531;28;20115;-67
2023/06/18 03:31:54;;;;;;;9.48;5.75;;;14.20;99.90;;;;;;4989970;28;20491;-67
2023/06/18 03:34:20;;;;;;;11.52;5.43;;;14.10;99.90;;;;;;4993532;28;20030;-67
2023/06/18 03:36:47;;;;;;;10.13;4.38;;;14.20;99.90;;;;;;4996908;28;20022;-67
2023/06/18 03:39:15;;;;;;;10.93;5.15;;;14.20;99.90;;;;;;4992572;28;20567;-67
2023/06/18 03:41:41;;;;;;;9.45;4.38;;;14.30;99.90;;;;;;4997015;28;20841;-67
2023/06/18 03:44:07;;;;;;;8.30;5.47;;;14.30;99.90;;;;;;5000850;28;20045;-67
2023/06/18 03:46:32;;;;;;;10.80;5.45;;;14.40;99.90;;;;;;5002879;28;20026;-66
2023/06/18 03:48:58;;;;;;;9.15;5.03;;;14.40;99.90;;;;;;5003653;28;20388;-67
2023/06/18 03:51:25;;;;;;;11.25;4.95;;;14.50;99.90;;;;;;4997499;28;20030;-67
2023/06/18 03:53:51;;;;;;;7.25;5.22;;;14.50;99.90;;;;;;5005270;28;20579;-67
2023/06/18 03:56:17;;;;;;;9.48;4.93;;;14.50;99.90;;;;;;5012715;28;20088;-68
2023/06/18 03:58:43;;;;;;;9.90;5.05;;;14.60;99.90;;;;;;5000455;28;20484;-68
2023/06/18 04:01:12;;;;;;;11.55;4.75;;;14.60;99.90;;;;;;5003361;28;20041;-67
2023/06/18 04:03:38;;;;;;;8.60;4.82;;;14.70;99.90;;;;;;5002650;28;20395;-66
2023/06/18 04:06:04;;;;;;;6.53;4.55;;;14.80;99.90;;;;;;5004297;28;20034;-67
2023/06/18 04:08:30;;;;;;;8.80;4.90;;;14.80;99.90;;;;;;4988906;28;20042;-67
2023/06/18 04:10:56;;;;;;;9.25;4.50;;;14.90;99.90;;;;;;5010384;28;20782;-68
2023/06/18 04:13:22;;;;;;;6.93;4.18;;;15.00;99.90;;;;;;5007762;28;20059;-67
2023/06/18 04:15:48;;;;;;;7.80;4.80;;;15.10;99.90;;;;;;5013768;28;20099;-67
2023/06/18 04:18:14;;;;;;;8.50;4.90;;;15.20;99.90;;;;;;5004724;28;20468;-66
2023/06/18 04:20:40;;;;;;;7.93;4.53;;;15.30;99.80;;;;;;5006705;28;20075;-67
2023/06/18 04:23:06;;;;;;;14.13;4.93;;;15.50;99.40;;;;;;5009811;28;20048;-67
2023/06/18 04:25:32;;;;;;;7.70;4.80;;;15.60;98.20;;;;;;5011559;28;20029;-67
2023/06/18 04:27:58;;;;;;;7.07;4.53;;;15.60;98.20;;;;;;5010651;28;20116;-67
2023/06/18 04:30:23;;;;;;;7.60;4.72;;;15.70;98.20;;;;;;5012169;28;20506;-67
2023/06/18 04:32:49;;;;;;;9.00;4.85;;;15.70;97.70;;;;;;5011355;28;20077;-67
2023/06/18 04:35:15;;;;;;;7.30;4.45;;;15.90;97.60;;;;;;5013052;28;20014;-67
2023/06/18 04:37:40;;;;;;;7.63;4.95;;;16.20;97.30;;;;;;5004320;28;20026;-67
2023/06/18 04:40:07;;;;;;;6.18;4.28;;;16.70;97.20;;;;;;5002319;28;20052;-67
2023/06/18 04:42:32;;;;;;;8.13;5.10;;;17.40;94.90;;;;;;5002358;28;20507;-67
2023/06/18 04:44:58;;;;;;;7.53;4.50;;;18.00;92.50;;;;;;4999604;28;20036;-67
2023/06/18 04:47:24;;;;;;;8.65;4.93;;;18.50;90.90;;;;;;5000581;28;20022;-67
2023/06/18 04:49:50;;;;;;;7.95;4.80;;;19.00;89.10;;;;;;4996356;28;20030;-67
2023/06/18 04:52:15;;;;;;;7.53;4.18;;;19.40;87.60;;;;;;5004343;28;20029;-68
2023/06/18 04:54:42;;;;;;;8.95;5.10;;;19.80;86.70;;;;;;5007528;28;20398;-67
2023/06/18 04:57:09;;;;;;;6.10;4.63;;;20.10;85.90;;;;;;5007223;28;20030;-67
2023/06/18 04:59:36;;;;;;;7.35;4.53;;;20.60;81.70;;;;;;5014900;28;20483;-67
2023/06/18 05:02:03;;;;;;;8.43;4.43;;;21.30;80.00;;;;;;5001694;28;20140;-68
2023/06/18 05:04:29;;;;;;;6.82;4.78;;;21.60;78.40;;;;;;5005910;28;20032;-68
2023/06/18 05:06:54;;;;;;;10.55;4.28;;;22.50;75.00;;;;;;5006392;28;20127;-68
2023/06/18 05:09:20;;;;;;;10.48;4.30;;;22.90;73.70;;;;;;4977651;28;20524;-67
2023/06/18 05:11:45;;;;;;;7.43;4.78;;;23.80;71.90;;;;;;4993746;28;20049;-67
2023/06/18 05:14:11;;;;;;;5.80;4.43;;;24.10;70.10;;;;;;4990931;28;20504;-67
2023/06/18 05:16:37;;;;;;;5.45;4.38;;;24.20;69.80;;;;;;4994942;28;20044;-67
2023/06/18 05:19:03;;;;;;;6.22;4.15;;;24.40;68.60;;;;;;4994499;28;20029;-68
2023/06/18 05:21:28;;;;;;;7.55;4.72;;;24.20;69.10;;;;;;4996932;28;20116;-68
2023/06/18 05:23:54;;;;;;;5.93;4.30;;;24.30;69.10;;;;;;4993159;28;20172;-67
2023/06/18 05:26:21;;;;;;;7.45;4.95;;;24.60;68.10;;;;;;4993659;28;20519;-67
2023/06/18 05:28:47;;;;;;;6.57;4.38;;;24.90;67.50;;;;;;5004827;28;20042;-67
2023/06/18 05:31:12;;;;;;;7.80;4.80;;;25.00;67.10;;;;;;4994492;28;20026;-67
2023/06/18 05:33:38;;;;;;;11.60;4.60;;;25.00;66.80;;;;;;4992582;28;20022;-67
2023/06/18 05:36:04;;;;;;;5.95;4.47;;;24.90;67.50;;;;;;4992669;28;20080;-68
2023/06/18 05:38:29;;;;;;;8.70;5.10;;;25.00;67.10;;;;;;4993731;28;20038;-68
2023/06/18 05:40:55;;;;;;;6.47;4.03;;;25.00;68.10;;;;;;5001310;28;20150;-67
2023/06/18 05:43:21;;;;;;;6.45;4.35;;;25.50;67.40;;;;;;5005670;28;20026;-67
2023/06/18 05:45:46;;;;;;;10.32;4.30;;;25.70;67.50;;;;;;5004113;28;20033;-66
2023/06/18 05:48:14;;;;;;;8.95;4.45;;;25.40;67.30;;;;;;5000151;28;20093;-66
2023/06/18 05:50:40;;;;;;;6.03;3.72;;;25.40;66.60;;;;;;5003124;28;20171;-66
2023/06/18 05:53:06;;;;;;;6.05;4.53;;;25.50;66.40;;;;;;5005968;28;20038;-67
2023/06/18 05:55:31;;;;;;;5.70;4.32;;;25.50;66.40;;;;;;5007535;28;20030;-66
2023/06/18 05:57:57;;;;;;;6.43;4.60;;;26.20;65.50;;;;;;5005024;28;20141;-67
2023/06/18 06:00:22;;;;;;;5.65;4.40;;;26.60;64.20;;;;;;4998894;28;20038;-65
2023/06/18 06:02:48;;;;;;;7.53;4.72;;;26.70;64.70;;;;;;5001193;28;20017;-67
2023/06/18 06:05:14;;;;;;;5.82;4.40;;;26.60;63.50;;;;;;5008877;28;20041;-66
2023/06/18 06:07:39;;;;;;;5.75;4.10;;;26.90;63.60;;;;;;5006911;28;20271;-66
2023/06/18 06:10:06;;;;;;;7.57;4.32;;;26.80;63.80;;;;;;4986843;28;20045;-66
2023/06/18 06:12:31;;;;;;;6.97;4.65;;;26.70;64.50;;;;;;4998949;28;20720;-66
2023/06/18 06:14:57;;;;;;;5.50;4.10;;;26.90;63.80;;;;;;5007800;28;20053;-67
2023/06/18 06:17:22;;;;;;;6.68;4.10;;;27.10;65.00;;;;;;4999897;28;20032;-66
2023/06/18 06:19:48;;;;;;;6.90;4.25;;;27.30;64.10;;;;;;4995790;28;20034;-67
2023/06/18 06:22:14;;;;;;;6.03;4.20;;;27.40;63.40;;;;;;5009398;28;20384;-66
2023/06/18 06:24:40;;;;;;;4.80;4.28;;;27.30;63.60;;;;;;5011234;28;20429;-66
2023/06/18 06:27:06;;;;;;;5.18;4.20;;;27.70;63.70;;;;;;5008498;28;20562;-67
2023/06/18 06:29:31;;;;;;;8.15;4.20;;;28.00;63.30;;;;;;5006704;28;20125;-67
2023/06/18 06:31:57;;;;;;;6.22;3.95;;;28.50;61.30;;;;;;5010886;28;20104;-67
2023/06/18 06:34:22;;;;;;;5.15;4.40;;;28.60;63.80;;;;;;5003542;28;20404;-67
2023/06/18 06:36:49;;;;;;;5.70;3.67;;;28.50;61.80;;;;;;5003648;28;20159;-66
2023/06/18 06:39:16;;;;;;;5.75;4.35;;;28.80;61.60;;;;;;5005276;28;20498;-66
2023/06/18 06:41:42;;;;;;;6.10;4.28;;;28.80;61.70;;;;;;5011163;28;20483;-67
2023/06/18 06:44:07;;;;;;;8.57;4.22;;;29.40;62.50;;;;;;5006120;28;20049;-66
2023/06/18 06:46:34;;;;;;;5.95;4.47;;;29.50;59.60;;;;;;5003201;28;20819;-66
2023/06/18 06:49:00;;;;;;;5.32;4.18;;;29.40;60.60;;;;;;5004052;28;20026;-67
2023/06/18 06:51:25;;;;;;;8.43;3.63;;;29.60;60.00;;;;;;4997254;28;20065;-67
2023/06/18 06:53:51;;;;;;;6.30;4.72;;;30.50;58.90;;;;;;5004833;28;20041;-66
2023/06/18 06:56:16;;;;;;;6.38;4.15;;;30.30;58.10;;;;;;4999747;28;20018;-67
2023/06/18 06:58:42;;;;;;;5.35;4.53;;;30.20;58.90;;;;;;5004945;28;20136;-67
2023/06/18 07:01:08;;;;;;;6.35;4.25;;;30.60;58.70;;;;;;5004467;28;20381;-66
2023/06/18 07:03:33;;;;;;;5.20;4.20;;;30.70;58.10;;;;;;5003642;28;20030;-67
2023/06/18 07:05:59;;;;;;;10.45;3.85;;;30.80;57.80;;;;;;5006448;28;20095;-67
2023/06/18 07:08:24;;;;;;;5.82;4.10;;;31.20;59.30;;;;;;4986014;28;20471;-67
2023/06/18 07:10:50;;;;;;;6.82;4.05;;;31.60;56.90;;;;;;4991207;28;20527;-67
2023/06/18 07:13:16;;;;;;;5.45;3.78;;;32.60;57.60;;;;;;4994038;28;20029;-66
2023/06/18 07:15:41;;;;;;;4.90;3.58;;;32.80;56.50;;;;;;4993997;28;20108;-67
2023/06/18 07:18:07;;;;;;;5.78;3.90;;;32.50;56.30;;;;;;4994748;28;20041;-67
2023/06/18 07:20:33;;;;;;;4.65;4.00;;;33.40;55.80;;;;;;5000691;28;20040;-68
2023/06/18 07:22:58;;;;;;;6.65;4.05;;;32.80;56.20;;;;;;4991417;28;20122;-67
2023/06/18 07:25:24;;;;;;;4.25;3.58;;;32.70;57.50;;;;;;4993729;28;20080;-67
2023/06/18 07:27:49;;;;;;;5.47;4.15;;;33.40;55.80;;;;;;4990505;28;20097;-67
2023/06/18 07:30:15;;;;;;;5.68;4.10;;;33.00;55.00;;;;;;4991901;28;20037;-67
2023/06/18 07:32:40;;;;;;;5.70;3.92;;;32.70;55.60;;;;;;4992652;28;20041;-66
2023/06/18 07:35:07;;;;;;;4.53;3.30;;;34.20;57.00;;;;;;4990753;28;20444;-68
2023/06/18 07:37:33;;;;;;;4.97;3.80;;;34.30;56.40;;;;;;4990720;28;20026;-67
2023/06/18 07:39:58;;;;;;;4.80;4.15;;;33.80;54.80;;;;;;4993749;28;20033;-67
2023/06/18 07:42:24;;;;;;;7.40;3.65;;;33.60;54.30;;;;;;4995593;28;20492;-67
2023/06/18 07:44:51;;;;;;;5.22;3.90;;;33.80;56.10;;;;;;4996914;28;20041;-67
2023/06/18 07:47:17;;;;;;;5.45;4.05;;;35.00;54.80;;;;;;4999075;28;20125;-68
2023/06/18 07:49:42;;;;;;;6.60;4.07;;;35.10;53.80;;;;;;5005556;28;20117;-67
2023/06/18 07:52:08;;;;;;;6.65;4.20;;;34.90;53.60;;;;;;5006460;28;20108;-67
2023/06/18 07:54:35;;;;;;;4.70;3.72;;;34.20;53.30;;;;;;5010582;28;20021;-67
2023/06/18 07:57:01;;;;;;;4.43;3.97;;;35.00;53.30;;;;;;5007369;28;20041;-67
2023/06/18 07:59:27;;;;;;;5.22;4.20;;;35.50;52.00;;;;;;5005061;28;20470;-67
2023/06/18 08:01:52;;;;;;;4.43;4.00;;;34.80;53.80;;;;;;4999042;28;20038;-67
2023/06/18 08:04:18;;;;;;;5.25;3.78;;;35.00;53.00;;;;;;5009272;28;20091;-67
2023/06/18 08:06:48;;;;;;;8.25;4.30;;;35.20;52.50;;;;;;5008443;28;20034;-67
2023/06/18 08:09:14;;;;;;;7.20;3.80;;;35.00;51.70;;;;;;4998624;28;20426;-66
2023/06/18 08:11:39;;;;;;;5.90;4.15;;;35.10;53.50;;;;;;5008198;28;20026;-67
2023/06/18 08:14:05;;;;;;;6.72;3.88;;;35.10;52.40;;;;;;5006547;28;20377;-67
2023/06/18 08:16:30;;;;;;;5.68;3.75;;;34.90;50.40;;;;;;5008455;28;20060;-67
2023/06/18 08:18:56;;;;;;;6.00;3.90;;;34.90;51.30;;;;;;5006173;28;20687;-67
2023/06/18 08:21:22;;;;;;;5.72;3.67;;;35.60;52.70;;;;;;5002705;28;20022;-67
2023/06/18 08:23:47;;;;;;;5.18;3.90;;;36.90;50.10;;;;;;5008172;28;20076;-66
2023/06/18 08:26:14;;;;;;;6.18;3.60;;;36.50;50.10;;;;;;5002823;28;20404;-68
2023/06/18 08:28:39;;;;;;;4.55;4.10;;;35.70;51.90;;;;;;5007289;28;20528;-67
2023/06/18 08:31:05;;;;;;;7.80;3.63;;;35.30;51.10;;;;;;5006297;28;20057;-67
2023/06/18 08:33:31;;;;;;;6.13;3.85;;;34.90;53.40;;;;;;5007979;28;20341;-67
2023/06/18 08:35:56;;;;;;;4.72;3.38;;;35.30;52.00;;;;;;5007932;28;20046;-68
2023/06/18 08:38:22;;;;;;;6.63;3.85;;;35.50;52.30;;;;;;5008956;28;20026;-67
2023/06/18 08:40:54;;;;;;;5.68;3.60;;;35.60;50.80;;;;;;5010025;28;20022;-67
2023/06/18 08:43:26;;;;;;;6.30;4.05;;;37.00;50.40;;;;;;5006897;28;20369;-67
2023/06/18 08:45:52;;;;;;;6.00;3.60;;;37.10;48.70;;;;;;5009896;28;20096;-67
2023/06/18 08:48:24;;;;;;;8.70;4.35;;;37.90;49.90;;;;;;5001183;28;20069;-67
2023/06/18 08:50:57;;;;;;;4.78;3.60;;;37.30;50.20;;;;;;4997622;28;20411;-67
2023/06/18 08:53:44;;;;;;;5.50;4.18;;;37.70;47.20;;;;;;5013885;28;20109;-67
2023/06/18 08:56:10;;;;;;;6.05;3.92;;;36.70;48.80;;;;;;5009188;28;20030;-67
2023/06/18 08:58:43;;;;;;;4.10;3.67;;;36.70;51.10;;;;;;5008357;28;20037;-67
2023/06/18 09:01:09;;;;;;;9.82;4.03;;;37.70;47.80;;;;;;5009448;28;20033;-68
2023/06/18 09:03:37;;;;;;;6.53;3.83;;;38.10;47.60;;;;;;5004097;28;20026;-66
2023/06/18 09:06:03;;;;;;;6.15;3.47;;;37.90;46.30;;;;;;5003314;28;20040;-68
2023/06/18 09:08:30;;;;;;;6.97;3.25;;;37.90;46.80;;;;;;4988363;28;20022;-67
2023/06/18 09:10:57;;;;;;;4.88;3.67;;;37.50;47.30;;;;;;5005513;28;20084;-68
2023/06/18 09:13:23;;;;;;;5.88;3.38;;;38.30;46.80;;;;;;4994268;28;20053;-66
2023/06/18 09:15:49;;;;;;;5.05;3.47;;;38.10;47.30;;;;;;4995174;28;20033;-67
2023/06/18 09:18:15;;;;;;;8.05;3.28;;;37.60;46.20;;;;;;4995183;28;20053;-67
2023/06/18 09:20:41;;;;;;;7.15;3.90;;;37.80;47.20;;;;;;4995242;28;20027;-67
2023/06/18 09:23:11;;;;;;;6.05;3.22;;;37.40;47.50;;;;;;5001263;28;20080;-67
2023/06/18 09:25:36;;;;;;;7.28;3.10;;;37.10;46.00;;;;;;4992951;28;20041;-67
2023/06/18 09:28:03;;;;;;;5.75;3.42;;;36.80;46.20;;;;;;4994487;28;20030;-67
2023/06/18 09:30:29;;;;;;;7.00;3.75;;;36.90;45.40;;;;;;4994156;28;20041;-67
2023/06/18 09:32:59;;;;;;;10.02;3.55;;;36.70;45.30;;;;;;5004539;28;20034;-68
2023/06/18 09:35:25;;;;;;;4.35;3.42;;;36.80;46.30;;;;;;4997477;28;20081;-68
2023/06/18 09:37:50;;;;;;;4.60;2.95;;;36.90;44.70;;;;;;4995667;28;20038;-67
2023/06/18 09:40:20;;;;;;;4.28;3.65;;;37.10;45.20;;;;;;4997341;28;20037;-68
2023/06/18 09:42:48;;;;;;;5.28;3.00;;;37.20;45.30;;;;;;5001698;28;20467;-68
2023/06/18 09:45:15;;;;;;;6.15;3.58;;;36.60;45.30;;;;;;5009038;28;20111;-67
2023/06/18 09:47:46;;;;;;;5.65;3.92;;;36.50;46.30;;;;;;5006342;28;20503;-67
2023/06/18 09:50:12;;;;;;;6.05;3.28;;;37.40;45.40;;;;;;4998202;28;20388;-68
2023/06/18 09:52:43;;;;;;;3.95;3.10;;;37.70;44.70;;;;;;4998399;28;20044;-67
2023/06/18 09:55:25;;;;;;;5.30;3.17;;;36.80;43.40;;;;;;5010229;28;20014;-68
2023/06/18 09:57:50;;;;;;;4.80;3.72;;;36.70;44.50;;;;;;5011178;28;20032;-67
2023/06/18 10:00:17;;;;;;;6.85;3.60;;;36.60;44.90;;;;;;5012616;28;20030;-68
2023/06/18 10:02:42;;;;;;;3.42;3.13;;;37.10;44.80;;;;;;5011511;28;20746;-68
2023/06/18 10:05:08;;;;;;;6.28;2.75;;;37.00;44.40;;;;;;4998632;28;20026;-68
2023/06/18 10:07:36;;;;;;;6.63;3.53;;;36.70;44.10;;;;;;5010089;28;20555;-67
2023/06/18 10:10:03;;;;;;;8.38;3.40;;;35.90;44.60;;;;;;4993486;28;20057;-67
2023/06/18 10:12:29;;;;;;;3.55;3.10;;;35.80;45.30;;;;;;5002812;28;20097;-67
2023/06/18 10:14:57;;;;;;;5.38;3.13;;;35.80;45.00;;;;;;5013042;28;20121;-67
2023/06/18 10:17:28;;;;;;;7.90;3.40;;;35.80;44.20;;;;;;5011470;28;20049;-67
2023/06/18 10:20:03;;;;;;;6.13;3.30;;;35.20;46.10;;;;;;4994797;28;20014;-66
2023/06/18 10:22:34;;;;;;;5.07;3.20;;;35.50;45.50;;;;;;5005857;28;20396;-67
2023/06/18 10:25:04;;;;;;;6.03;3.00;;;34.70;46.70;;;;;;5002379;28;20031;-66
2023/06/18 10:27:30;;;;;;;3.55;2.70;;;33.80;46.70;;;;;;5002886;28;20054;-66
2023/06/18 10:29:59;;;;;;;4.10;3.15;;;33.10;45.50;;;;;;5006469;28;20049;-66
2023/06/18 10:32:30;;;;;;;5.90;3.08;;;33.50;47.30;;;;;;5010726;28;20491;-66
2023/06/18 10:34:58;;;;;;;7.65;3.60;;;33.40;46.90;;;;;;4990333;28;20396;-67
2023/06/18 10:37:25;;;;;;;4.65;3.60;;;33.50;47.10;;;;;;4989929;28;20029;-66
2023/06/18 10:39:51;;;;;;;4.80;3.38;;;33.90;46.80;;;;;;4990779;28;20420;-66
2023/06/18 10:42:18;;;;;;;8.60;3.30;;;33.70;47.80;;;;;;5009189;28;20032;-67
2023/06/18 10:44:47;;;;;;;6.13;4.00;;;34.20;47.30;;;;;;5005181;28;20107;-67
2023/06/18 10:47:32;;;;;;;4.85;3.03;;;34.10;45.70;;;;;;5004796;28;20022;-66
2023/06/18 10:50:07;;;;;;;3.95;3.25;;;33.50;46.10;;;;;;5007594;28;20029;-67
2023/06/18 10:52:37;;;;;;;7.93;3.75;;;33.70;46.90;;;;;;5015008;28;20395;-67
2023/06/18 10:55:06;;;;;;;5.78;3.33;;;33.70;46.50;;;;;;5009161;28;20511;-67
2023/06/18 10:57:38;;;;;;;8.57;3.50;;;33.60;46.10;;;;;;5008051;28;20022;-67
2023/06/18 11:00:31;;;;;;;4.30;3.10;;;33.30;46.70;;;;;;5009217;28;20021;-66
2023/06/18 11:03:04;;;;;;;4.45;3.67;;;32.90;48.10;;;;;;5005125;28;20030;-67
2023/06/18 11:05:32;;;;;;;4.72;3.42;;;32.80;47.60;;;;;;4998507;28;20022;-67
2023/06/18 11:08:00;;;;;;;6.93;3.45;;;32.80;49.40;;;;;;5016750;28;20432;-68
2023/06/18 11:10:34;;;;;;;5.95;4.03;;;32.70;49.20;;;;;;4989133;28;20058;-66
2023/06/18 11:13:06;;;;;;;8.07;3.60;;;32.70;48.20;;;;;;5004768;28;20503;-67
2023/06/18 11:15:33;;;;;;;4.10;2.75;;;32.20;48.90;;;;;;5005669;28;20502;-67
2023/06/18 11:18:01;;;;;;;4.15;2.92;;;32.60;49.50;;;;;;5008360;28;20029;-67
2023/06/18 11:20:31;;;;;;;11.95;2.95;;;32.70;49.50;;;;;;5009327;28;20029;-67
2023/06/18 11:23:00;;;;;;;4.35;3.05;;;32.70;48.50;;;;;;5005542;28;20029;-67
2023/06/18 11:25:27;;;;;;;6.22;3.60;;;32.20;49.00;;;;;;5001652;28;20490;-67
2023/06/18 11:27:55;;;;;;;4.15;2.88;;;32.20;49.10;;;;;;5003639;28;20035;-67
2023/06/18 11:30:21;;;;;;;4.47;3.15;;;32.20;49.20;;;;;;5019512;28;20036;-67
2023/06/18 11:32:47;;;;;;;4.78;3.15;;;32.10;49.40;;;;;;5003792;28;20057;-67
2023/06/18 11:35:13;;;;;;;3.50;2.88;;;32.10;49.20;;;;;;4994829;28;20571;-67
2023/06/18 11:37:42;;;;;;;4.50;3.30;;;32.10;50.00;;;;;;4999395;28;20041;-67
2023/06/18 11:40:08;;;;;;;3.83;2.70;;;32.00;50.50;;;;;;4999616;28;20084;-67
2023/06/18 11:42:36;;;;;;;6.13;2.50;;;32.10;50.70;;;;;;5012175;28;20021;-67
2023/06/18 11:45:05;;;;;;;6.40;2.80;;;32.40;48.80;;;;;;4996838;28;20033;-67
2023/06/18 11:47:34;;;;;;;5.90;3.22;;;32.50;47.30;;;;;;5003226;28;20113;-67
2023/06/18 11:50:00;;;;;;;4.85;3.30;;;32.20;48.50;;;;;;4995351;28;20452;-67
2023/06/18 11:52:27;;;;;;;5.20;3.17;;;32.20;49.30;;;;;;5004506;28;20026;-67
2023/06/18 11:55:00;;;;;;;3.25;2.80;;;32.00;48.70;;;;;;4996056;28;20038;-67
2023/06/18 11:57:26;;;;;;;5.53;3.05;;;32.00;49.60;;;;;;5001541;28;20125;-69
2023/06/18 11:59:54;;;;;;;8.82;3.28;;;31.80;49.80;;;;;;5004459;28;20510;-67
2023/06/18 12:02:22;;;;;;;6.55;3.28;;;31.60;50.30;;;;;;5002194;28;20022;-67
2023/06/18 12:04:49;;;;;;;8.32;3.22;;;31.60;49.20;;;;;;5003873;28;20030;-67
2023/06/18 12:07:24;;;;;;;5.72;3.28;;;31.70;50.60;;;;;;4998833;28;20041;-67
2023/06/18 12:09:53;;;;;;;3.75;2.95;;;31.70;50.10;;;;;;4979658;28;20542;-67
2023/06/18 12:12:34;;;;;;;3.72;2.90;;;31.60;49.60;;;;;;5000890;28;20022;-67
2023/06/18 12:15:20;;;;;;;3.67;2.83;;;31.60;51.40;;;;;;5001142;28;20025;-67
2023/06/18 12:18:33;;;;;;;4.65;3.10;;;31.70;51.30;;;;;;5001405;28;20026;-67
2023/06/18 12:20:59;;;;;;;5.90;3.20;;;31.80;55.20;;;;;;4999289;28;20513;-68
2023/06/18 12:23:27;;;;;;;4.88;2.88;;;31.80;49.80;;;;;;4999205;28;20172;-68
2023/06/18 12:25:53;;;;;;;4.00;3.05;;;32.00;53.10;;;;;;5001190;28;20743;-68
2023/06/18 12:28:23;;;;;;;4.53;3.13;;;31.80;49.00;;;;;;5004117;28;20041;-67
2023/06/18 12:30:51;;;;;;;5.38;3.95;;;31.80;49.30;;;;;;5004497;28;20022;-68
2023/06/18 12:33:18;;;;;;;3.95;3.25;;;31.70;48.10;;;;;;5006537;28;20534;-67
2023/06/18 12:35:54;;;;;;;4.90;3.58;;;31.60;50.40;;;;;;4998608;28;20026;-67
2023/06/18 12:38:21;;;;;;;8.15;3.70;;;31.70;50.20;;;;;;5004299;28;20084;-68
2023/06/18 12:40:50;;;;;;;5.50;3.42;;;31.90;48.70;;;;;;5014716;28;20033;-68
2023/06/18 12:43:18;;;;;;;6.50;4.10;;;32.10;49.20;;;;;;5015101;28;20022;-67
2023/06/18 12:45:47;;;;;;;6.05;3.78;;;32.30;49.40;;;;;;4991898;28;20451;-67
2023/06/18 12:48:14;;;;;;;5.70;3.78;;;32.70;49.50;;;;;;5009185;28;20025;-68